Time;durP1;ratioP1;P1;durP2;ratioP2;P2;SDS_P1;SDS_P2;PMS_P1;PMS_P2;Temp;Humidity;BMP_temperature;BMP_pressure;BME280_temperature;BME280_humidity;BME280_pressure;Samples;Min_cycle;Max_cycle;Signal;HPM_P1;HPM_P2
2023/07/07 00:01:49;;;;;;;1999.90;999.90;;;17.10;99.90;;;;;;5013497;28;20459;-69
2023/07/07 00:04:14;;;;;;;1999.90;999.90;;;17.10;99.90;;;;;;5013594;28;20528;-69
2023/07/07 00:06:40;;;;;;;1999.90;999.90;;;17.00;99.90;;;;;;5013477;28;20199;-69
2023/07/07 00:09:06;;;;;;;1999.90;999.90;;;17.00;99.90;;;;;;5013515;28;20511;-69
2023/07/07 00:11:31;;;;;;;1999.90;999.90;;;16.90;99.90;;;;;;5013236;28;20174;-69
2023/07/07 00:13:57;;;;;;;1999.90;999.90;;;16.80;99.90;;;;;;5013499;28;20442;-70
2023/07/07 00:16:27;;;;;;;1999.90;999.90;;;16.70;99.90;;;;;;5053389;22;20534;-69
2023/07/07 00:18:57;;;;;;;1999.90;999.90;;;16.70;99.90;;;;;;5013385;28;20212;-69
2023/07/07 00:21:24;;;;;;;1999.90;999.90;;;16.70;99.90;;;;;;5013366;28;20396;-69
2023/07/07 00:23:57;;;;;;;1999.90;999.90;;;16.60;99.90;;;;;;5013474;28;20469;-69
2023/07/07 00:26:25;;;;;;;1999.90;999.90;;;16.50;99.90;;;;;;5013710;28;20767;-70
2023/07/07 00:28:51;;;;;;;1999.90;999.90;;;16.50;99.90;;;;;;5013519;28;20414;-70
2023/07/07 00:31:20;;;;;;;1999.90;999.90;;;16.50;99.90;;;;;;5012993;28;20466;-69
2023/07/07 00:33:46;;;;;;;1999.90;999.90;;;16.40;99.90;;;;;;5013379;28;20414;-69
2023/07/07 00:36:11;;;;;;;1999.90;999.90;;;16.40;99.90;;;;;;5013298;28;20996;-69
2023/07/07 00:38:37;;;;;;;1999.90;999.90;;;16.40;99.90;;;;;;5013027;28;20466;-69
2023/07/07 00:41:04;;;;;;;1999.90;999.90;;;16.40;99.90;;;;;;5012946;28;20240;-69
2023/07/07 00:43:30;;;;;;;1999.90;999.90;;;16.40;99.90;;;;;;5013118;28;20172;-69
2023/07/07 00:45:57;;;;;;;1999.90;999.90;;;16.40;99.90;;;;;;5012853;28;20849;-69
2023/07/07 00:48:32;;;;;;;1999.90;999.90;;;16.30;99.90;;;;;;5013027;28;20421;-69
2023/07/07 00:51:12;;;;;;;1999.90;999.90;;;16.30;99.90;;;;;;5012773;28;20456;-69
2023/07/07 00:53:40;;;;;;;1999.90;999.90;;;16.20;99.90;;;;;;5012986;28;20419;-69
2023/07/07 00:56:16;;;;;;;1999.90;999.90;;;16.20;99.90;;;;;;5012746;28;20443;-69
2023/07/07 00:58:42;;;;;;;1999.90;999.90;;;16.10;99.90;;;;;;5012793;28;20502;-69
2023/07/07 01:01:13;;;;;;;1999.90;999.90;;;16.10;99.90;;;;;;5012536;28;20953;-69
2023/07/07 01:03:43;;;;;;;1999.90;999.90;;;16.10;99.90;;;;;;5012682;28;20405;-69
2023/07/07 01:06:14;;;;;;;1999.90;999.90;;;16.00;99.90;;;;;;5012554;28;20500;-69
2023/07/07 01:08:42;;;;;;;1999.90;999.90;;;15.90;99.90;;;;;;5012596;28;20558;-70
2023/07/07 01:11:08;;;;;;;1999.90;999.90;;;15.90;99.90;;;;;;5012294;28;20419;-69
2023/07/07 01:13:36;;;;;;;1999.90;999.90;;;15.90;99.90;;;;;;5012731;28;20422;-69
2023/07/07 01:16:25;;;;;;;1999.90;999.90;;;15.80;99.90;;;;;;5012403;28;20871;-70
2023/07/07 01:19:16;;;;;;;1999.90;999.90;;;15.70;99.90;;;;;;5012446;28;20505;-69
2023/07/07 01:21:58;;;;;;;1999.90;999.90;;;15.70;99.90;;;;;;4982743;28;20417;-69
2023/07/07 01:24:38;;;;;;;1999.90;999.90;;;15.60;99.90;;;;;;5012530;28;20401;-70
2023/07/07 01:27:16;;;;;;;1999.90;999.90;;;15.50;99.90;;;;;;5012530;28;20772;-69
2023/07/07 01:30:02;;;;;;;1999.90;999.90;;;15.50;99.90;;;;;;5012225;28;20409;-70
2023/07/07 01:32:30;;;;;;;1999.90;999.90;;;15.40;99.90;;;;;;5012386;28;20413;-68
2023/07/07 01:35:03;;;;;;;1999.90;999.90;;;15.40;99.90;;;;;;5012499;28;21063;-68
2023/07/07 01:37:29;;;;;;;1999.90;999.90;;;15.40;99.90;;;;;;5012311;28;20497;-68
2023/07/07 01:39:55;;;;;;;1999.90;999.90;;;15.40;99.90;;;;;;5012420;28;20409;-69
2023/07/07 01:42:28;;;;;;;1999.90;999.90;;;15.30;99.90;;;;;;5012001;28;20177;-69
2023/07/07 01:45:05;;;;;;;1999.90;999.90;;;15.30;99.90;;;;;;5012591;28;20411;-68
2023/07/07 01:47:36;;;;;;;1999.90;999.90;;;15.30;99.90;;;;;;5012316;28;20420;-68
2023/07/07 01:50:20;;;;;;;1999.90;999.90;;;15.30;99.90;;;;;;5012558;28;20418;-69
2023/07/07 01:52:53;;;;;;;1999.90;999.90;;;15.20;99.90;;;;;;5011940;28;20404;-68
2023/07/07 01:55:23;;;;;;;1999.90;999.90;;;15.20;99.90;;;;;;5012235;28;20422;-69
2023/07/07 01:57:53;;;;;;;1999.90;999.90;;;15.20;99.90;;;;;;5012215;28;20516;-69
2023/07/07 02:00:20;;;;;;;1999.90;999.90;;;15.10;99.90;;;;;;5012216;28;20410;-69
2023/07/07 02:02:46;;;;;;;1999.90;999.90;;;15.00;99.90;;;;;;5012012;28;20422;-69
2023/07/07 02:05:13;;;;;;;1999.90;999.90;;;15.10;99.90;;;;;;5012254;28;20828;-68
2023/07/07 02:07:39;;;;;;;1999.90;999.90;;;15.00;99.90;;;;;;5012429;28;20796;-69
2023/07/07 02:10:05;;;;;;;1999.90;999.90;;;15.00;99.90;;;;;;5012266;28;20411;-70
2023/07/07 02:12:31;;;;;;;1999.90;999.90;;;15.00;99.90;;;;;;5011816;28;20858;-70
2023/07/07 02:14:56;;;;;;;1999.90;999.90;;;15.00;99.90;;;;;;5012295;28;20479;-68
2023/07/07 02:17:24;;;;;;;1999.90;999.90;;;15.00;99.90;;;;;;5011947;28;20229;-68
2023/07/07 02:19:50;;;;;;;1999.90;999.90;;;15.00;99.90;;;;;;5011443;28;20184;-68
2023/07/07 02:22:16;;;;;;;1999.90;999.90;;;15.00;99.90;;;;;;5011947;28;20469;-69
2023/07/07 02:24:41;;;;;;;1999.90;999.90;;;14.90;99.90;;;;;;5012071;28;20392;-69
2023/07/07 02:27:10;;;;;;;1999.90;999.90;;;14.80;99.90;;;;;;5012090;28;20198;-69
2023/07/07 02:29:37;;;;;;;1999.90;999.90;;;14.80;99.90;;;;;;5012119;28;20228;-69
2023/07/07 02:32:03;;;;;;;1999.90;999.90;;;14.80;99.90;;;;;;5011722;28;20782;-69
2023/07/07 02:34:28;;;;;;;1999.90;999.90;;;14.80;99.90;;;;;;5011883;28;20882;-69
2023/07/07 02:36:54;;;;;;;1999.90;999.90;;;14.70;99.90;;;;;;5011848;28;20457;-69
2023/07/07 02:39:20;;;;;;;1999.90;999.90;;;14.70;99.90;;;;;;5011861;28;20600;-69
2023/07/07 02:41:45;;;;;;;1999.90;999.90;;;14.70;99.90;;;;;;5015039;28;20257;-70
2023/07/07 02:44:12;;;;;;;1999.90;999.90;;;14.60;99.90;;;;;;5015359;28;20502;-69
2023/07/07 02:46:37;;;;;;;1999.90;999.90;;;14.60;99.90;;;;;;5015351;28;20232;-70
2023/07/07 02:49:03;;;;;;;1999.90;999.90;;;14.60;99.90;;;;;;5015431;28;20918;-68
2023/07/07 02:51:29;;;;;;;1999.90;999.90;;;14.60;99.90;;;;;;5015036;28;20206;-69
2023/07/07 02:53:55;;;;;;;1999.90;999.90;;;14.50;99.90;;;;;;5015254;28;20258;-69
2023/07/07 02:56:20;;;;;;;1999.90;999.90;;;14.50;99.90;;;;;;5015209;28;20706;-69
2023/07/07 02:58:46;;;;;;;1999.90;999.90;;;14.50;99.90;;;;;;5014806;28;20451;-68
2023/07/07 03:01:14;;;;;;;1999.90;999.90;;;14.50;99.90;;;;;;5014455;28;20199;-68
2023/07/07 03:03:43;;;;;;;1999.90;999.90;;;14.50;99.90;;;;;;5014985;28;20181;-69
2023/07/07 03:06:12;;;;;;;1999.90;999.90;;;14.40;99.90;;;;;;5014698;28;20437;-68
2023/07/07 03:08:38;;;;;;;1999.90;999.90;;;14.40;99.90;;;;;;5014732;28;20420;-69
2023/07/07 03:11:09;;;;;;;1999.90;999.90;;;14.30;99.90;;;;;;5014339;28;20413;-68
2023/07/07 03:13:36;;;;;;;1999.90;999.90;;;14.20;99.90;;;;;;5014519;28;20185;-68
2023/07/07 03:16:14;;;;;;;1999.90;999.90;;;14.30;99.90;;;;;;5014293;28;20450;-69
2023/07/07 03:18:40;;;;;;;1999.90;999.90;;;14.20;99.90;;;;;;5014413;28;20464;-68
2023/07/07 03:21:07;;;;;;;1999.90;999.90;;;14.30;99.90;;;;;;5014301;28;20426;-69
2023/07/07 03:23:34;;;;;;;1999.90;999.90;;;14.30;99.90;;;;;;5014409;28;20417;-68
2023/07/07 03:26:11;;;;;;;1999.90;999.90;;;14.20;99.90;;;;;;5014238;28;20428;-68
2023/07/07 03:28:37;;;;;;;1999.90;999.90;;;14.20;99.90;;;;;;5014313;28;20414;-69
2023/07/07 03:31:12;;;;;;;1999.90;999.90;;;14.30;99.90;;;;;;5014103;28;20597;-68
2023/07/07 03:33:42;;;;;;;1999.90;999.90;;;14.30;99.90;;;;;;5014274;28;20449;-69
2023/07/07 03:36:12;;;;;;;1999.90;999.90;;;14.20;99.90;;;;;;5014150;28;20457;-68
2023/07/07 03:38:39;;;;;;;1999.90;999.90;;;14.20;99.90;;;;;;5014015;28;20463;-69
2023/07/07 03:41:06;;;;;;;1999.90;999.90;;;14.20;99.90;;;;;;5013829;28;20406;-69
2023/07/07 03:43:35;;;;;;;1999.90;999.90;;;14.20;99.90;;;;;;5014155;28;20506;-68
2023/07/07 03:46:01;;;;;;;1999.90;999.90;;;14.10;99.90;;;;;;5013966;28;20942;-69
2023/07/07 03:48:27;;;;;;;1999.90;999.90;;;14.00;99.90;;;;;;5013985;28;20423;-69
2023/07/07 03:50:58;;;;;;;1999.90;999.90;;;14.00;99.90;;;;;;5013462;28;20567;-68
2023/07/07 03:53:24;;;;;;;1999.90;999.90;;;14.00;99.90;;;;;;5013797;28;20411;-68
2023/07/07 03:55:49;;;;;;;1999.90;999.90;;;14.00;99.90;;;;;;5013830;28;20424;-68
2023/07/07 03:58:15;;;;;;;1999.90;999.90;;;14.00;99.90;;;;;;5013831;28;20283;-69
2023/07/07 04:00:41;;;;;;;1999.90;999.90;;;14.10;99.90;;;;;;5013753;28;20179;-69
2023/07/07 04:03:06;;;;;;;1999.90;999.90;;;14.10;99.90;;;;;;5013445;28;20163;-68
2023/07/07 04:05:32;;;;;;;1999.90;999.90;;;14.10;99.90;;;;;;5013551;28;20216;-67
2023/07/07 04:07:57;;;;;;;1999.90;999.90;;;14.10;99.90;;;;;;5013637;28;20180;-69
2023/07/07 04:10:23;;;;;;;1999.90;999.90;;;14.30;99.90;;;;;;5013561;28;20176;-69
2023/07/07 04:12:48;;;;;;;1999.90;999.90;;;14.10;99.90;;;;;;5013275;28;20538;-69
2023/07/07 04:15:16;;;;;;;1999.90;999.90;;;14.10;99.90;;;;;;5014214;28;20180;-68
2023/07/07 04:17:42;;;;;;;1999.90;999.90;;;14.20;99.90;;;;;;5013840;28;20593;-69
2023/07/07 04:20:08;;;;;;;1999.90;999.90;;;14.20;99.90;;;;;;5014251;28;20495;-68
2023/07/07 04:22:34;;;;;;;1999.90;999.90;;;14.30;99.90;;;;;;5013793;28;20213;-69
2023/07/07 04:25:17;;;;;;;1999.90;999.90;;;14.30;99.90;;;;;;5014263;28;20446;-69
2023/07/07 04:27:44;;;;;;;1999.90;999.90;;;14.40;99.90;;;;;;5014186;28;20235;-69
2023/07/07 04:30:11;;;;;;;1999.90;999.90;;;14.40;99.90;;;;;;5014198;28;20403;-69
2023/07/07 04:32:37;;;;;;;1999.90;999.90;;;14.40;99.90;;;;;;5013612;28;20472;-68
2023/07/07 04:35:04;;;;;;;1999.90;999.90;;;14.40;99.90;;;;;;5013971;28;20503;-69
2023/07/07 04:37:30;;;;;;;1999.90;999.90;;;14.50;99.90;;;;;;5014207;28;20424;-69
2023/07/07 04:39:56;;;;;;;1999.90;999.90;;;14.50;99.90;;;;;;5014236;28;20416;-68
2023/07/07 04:42:22;;;;;;;1999.90;999.90;;;14.60;99.90;;;;;;5014136;28;20425;-68
2023/07/07 04:44:47;;;;;;;1999.90;999.90;;;14.60;99.90;;;;;;5014211;28;20314;-69
2023/07/07 04:47:13;;;;;;;1999.90;999.90;;;14.70;99.90;;;;;;5014215;28;20243;-69
2023/07/07 04:49:38;;;;;;;1999.90;999.90;;;14.80;99.90;;;;;;5014081;28;20203;-69
2023/07/07 04:52:04;;;;;;;1999.90;999.90;;;14.80;99.90;;;;;;5013622;28;20172;-69
2023/07/07 04:54:30;;;;;;;1999.90;999.90;;;14.90;99.90;;;;;;5014058;28;20259;-69
2023/07/07 04:56:56;;;;;;;1999.90;999.90;;;14.90;99.90;;;;;;5013514;28;20471;-68
2023/07/07 04:59:21;;;;;;;1999.90;999.90;;;14.90;99.90;;;;;;5013372;28;20209;-69
2023/07/07 05:01:47;;;;;;;1999.90;999.90;;;14.90;99.90;;;;;;5012823;28;20173;-69
2023/07/07 05:04:13;;;;;;;1999.90;999.90;;;15.00;99.90;;;;;;5012468;28;20717;-69
2023/07/07 05:06:39;;;;;;;1999.90;999.90;;;15.00;99.90;;;;;;5012966;28;20187;-69
2023/07/07 05:09:10;;;;;;;1999.90;999.90;;;15.00;99.90;;;;;;5012791;28;20187;-69
2023/07/07 05:11:36;;;;;;;1999.90;999.90;;;15.00;99.90;;;;;;5012350;28;20444;-69
2023/07/07 05:14:03;;;;;;;1999.90;999.90;;;15.10;99.90;;;;;;5012618;28;20412;-68
2023/07/07 05:16:35;;;;;;;1999.90;999.90;;;15.20;99.90;;;;;;5012274;28;20453;-69
2023/07/07 05:19:01;;;;;;;1999.90;999.90;;;15.30;99.90;;;;;;5012522;28;20438;-69
2023/07/07 05:21:27;;;;;;;1999.90;999.90;;;15.30;99.90;;;;;;5012282;28;20484;-69
2023/07/07 05:23:54;;;;;;;1999.90;999.90;;;15.50;99.90;;;;;;5012676;28;20498;-69
2023/07/07 05:26:21;;;;;;;1999.90;999.90;;;15.50;99.90;;;;;;5012509;28;20696;-69
2023/07/07 05:28:47;;;;;;;1999.90;999.90;;;15.50;99.90;;;;;;5012161;28;20558;-69
2023/07/07 05:31:13;;;;;;;1999.90;999.90;;;15.50;99.90;;;;;;5012138;28;20457;-69
2023/07/07 05:33:39;;;;;;;1999.90;999.90;;;15.50;99.90;;;;;;5012421;28;20467;-69
2023/07/07 05:36:08;;;;;;;1999.90;999.90;;;15.70;99.90;;;;;;5012327;28;20196;-69
2023/07/07 05:38:34;;;;;;;1999.90;999.90;;;15.80;99.90;;;;;;5011975;28;20459;-69
2023/07/07 05:41:00;;;;;;;1999.90;999.90;;;15.80;99.90;;;;;;5012057;28;20414;-69
2023/07/07 05:43:26;;;;;;;1999.90;999.90;;;15.90;99.90;;;;;;5012139;28;20405;-69
2023/07/07 05:46:04;;;;;;;1999.90;999.90;;;16.00;99.90;;;;;;5010785;28;20211;-69
2023/07/07 05:48:30;;;;;;;1999.90;999.90;;;16.00;99.90;;;;;;5012255;28;20495;-69
2023/07/07 05:50:58;;;;;;;1999.90;999.90;;;16.10;99.90;;;;;;5011936;28;20421;-69
2023/07/07 05:53:23;;;;;;;1999.90;999.90;;;16.20;99.90;;;;;;5012267;28;20825;-69
2023/07/07 05:55:49;;;;;;;1999.90;999.90;;;16.30;99.90;;;;;;5011642;28;20448;-69
2023/07/07 05:58:16;;;;;;;1999.90;999.90;;;16.40;99.90;;;;;;5011733;28;20193;-69
2023/07/07 06:00:43;;;;;;;1999.90;999.90;;;16.50;99.90;;;;;;5011777;28;20444;-69
2023/07/07 06:03:08;;;;;;;1999.90;999.90;;;16.60;99.90;;;;;;5011835;28;20410;-69
2023/07/07 06:05:34;;;;;;;1999.90;999.90;;;16.70;99.90;;;;;;5012160;28;20493;-69
2023/07/07 06:08:00;;;;;;;1999.90;999.90;;;16.80;99.90;;;;;;5011985;28;20178;-69
2023/07/07 06:10:26;;;;;;;1999.90;999.90;;;16.80;99.90;;;;;;5012283;28;20178;-69
2023/07/07 06:12:52;;;;;;;1999.90;999.90;;;17.00;99.90;;;;;;5011598;28;20425;-69
2023/07/07 06:15:18;;;;;;;1999.90;999.90;;;17.00;99.90;;;;;;5014828;28;20962;-69
2023/07/07 06:17:47;;;;;;;1999.90;999.90;;;17.10;99.90;;;;;;5016002;28;20452;-69
2023/07/07 06:20:13;;;;;;;1999.90;999.90;;;17.20;99.90;;;;;;5015696;28;20414;-69
2023/07/07 06:22:39;;;;;;;1999.90;999.90;;;17.30;99.90;;;;;;5015397;28;20438;-68
2023/07/07 06:25:05;;;;;;;1999.90;999.90;;;17.30;99.90;;;;;;5015564;28;20408;-69
2023/07/07 06:27:30;;;;;;;1999.90;999.90;;;17.40;99.90;;;;;;5015382;28;20189;-69
2023/07/07 06:29:56;;;;;;;1999.90;999.90;;;17.50;99.90;;;;;;5015440;28;20177;-70
2023/07/07 06:32:22;;;;;;;1999.90;999.90;;;17.60;99.90;;;;;;5015125;28;20184;-70
2023/07/07 06:34:47;;;;;;;1999.90;999.90;;;17.70;99.90;;;;;;5015397;28;20216;-69
2023/07/07 06:37:13;;;;;;;1999.90;999.90;;;17.80;99.90;;;;;;5015236;28;20199;-69
2023/07/07 06:39:38;;;;;;;1999.90;999.90;;;17.90;99.90;;;;;;5015074;28;20560;-69
2023/07/07 06:42:04;;;;;;;1999.90;999.90;;;18.00;99.90;;;;;;5014793;28;20186;-68
2023/07/07 06:44:30;;;;;;;1999.90;999.90;;;18.10;99.90;;;;;;5015077;28;20225;-69
2023/07/07 06:46:55;;;;;;;1999.90;999.90;;;18.20;99.90;;;;;;5014996;28;20847;-69
2023/07/07 06:49:21;;;;;;;1999.90;999.90;;;18.30;99.90;;;;;;5015155;28;20263;-69
2023/07/07 06:51:46;;;;;;;1999.90;999.90;;;18.50;99.90;;;;;;5014714;28;20269;-69
2023/07/07 06:54:12;;;;;;;1999.90;999.90;;;18.50;99.90;;;;;;5014939;28;20179;-68
2023/07/07 06:56:38;;;;;;;1999.90;999.90;;;18.60;99.90;;;;;;5014996;28;20273;-69
2023/07/07 06:59:04;;;;;;;1999.90;999.90;;;18.70;99.90;;;;;;5014771;28;20208;-69
2023/07/07 07:01:30;;;;;;;1999.90;999.90;;;18.80;99.90;;;;;;5014687;28;20169;-69
2023/07/07 07:03:58;;;;;;;1999.90;999.90;;;18.90;99.90;;;;;;5014777;28;20417;-69
2023/07/07 07:06:24;;;;;;;1999.90;999.90;;;19.00;99.90;;;;;;5014649;28;20431;-69
2023/07/07 07:08:49;;;;;;;1999.90;999.90;;;19.10;99.90;;;;;;5014622;28;20419;-70
2023/07/07 07:11:16;;;;;;;1999.90;999.90;;;19.20;99.90;;;;;;5014245;28;20656;-69
2023/07/07 07:13:42;;;;;;;1999.90;999.90;;;19.30;99.90;;;;;;5014619;28;20637;-69
2023/07/07 07:16:08;;;;;;;1999.90;999.90;;;19.40;99.90;;;;;;5014327;28;20454;-69
2023/07/07 07:18:33;;;;;;;1999.90;999.90;;;19.50;99.90;;;;;;5014429;28;20196;-69
2023/07/07 07:20:59;;;;;;;1999.90;999.90;;;19.50;99.90;;;;;;5014142;28;20180;-70
2023/07/07 07:23:24;;;;;;;1999.90;999.90;;;19.50;99.90;;;;;;5014432;28;20540;-68
2023/07/07 07:25:50;;;;;;;1999.90;999.90;;;19.60;99.90;;;;;;5013676;28;20283;-69
2023/07/07 07:28:16;;;;;;;1999.90;999.90;;;19.70;99.90;;;;;;5014397;28;20176;-69
2023/07/07 07:30:42;;;;;;;1999.90;999.90;;;19.80;99.90;;;;;;5014804;28;20180;-70
2023/07/07 07:33:13;;;;;;;1999.90;999.90;;;19.90;99.90;;;;;;5014511;28;20274;-69
2023/07/07 07:35:39;;;;;;;1999.90;999.90;;;19.90;99.90;;;;;;5014635;28;20420;-69
2023/07/07 07:38:05;;;;;;;1999.90;999.90;;;20.00;99.90;;;;;;5014449;28;20452;-69
2023/07/07 07:40:31;;;;;;;1999.90;999.90;;;20.20;99.90;;;;;;5014886;28;20216;-69
2023/07/07 07:42:56;;;;;;;1999.90;999.90;;;20.30;99.90;;;;;;5014026;28;20171;-70
2023/07/07 07:45:23;;;;;;;1999.90;999.90;;;20.40;99.90;;;;;;5014045;28;20408;-69
2023/07/07 07:47:50;;;;;;;1999.90;999.90;;;20.40;99.90;;;;;;5013784;28;20194;-69
2023/07/07 07:50:16;;;;;;;1999.90;999.90;;;20.60;99.90;;;;;;5013974;28;20419;-69
2023/07/07 07:52:42;;;;;;;1999.90;999.90;;;20.70;99.90;;;;;;5013518;28;20406;-69
2023/07/07 07:55:08;;;;;;;1999.90;999.90;;;20.80;99.90;;;;;;5013735;28;20820;-70
2023/07/07 07:57:33;;;;;;;1999.90;999.90;;;21.00;99.90;;;;;;5013735;28;20232;-70
2023/07/07 07:59:59;;;;;;;1999.90;999.90;;;21.10;99.90;;;;;;5013610;28;20228;-69
2023/07/07 08:02:24;;;;;;;1999.90;999.90;;;21.20;99.90;;;;;;5013469;28;20179;-69
2023/07/07 08:04:50;;;;;;;1999.90;999.90;;;21.20;99.90;;;;;;5014424;28;20549;-70
2023/07/07 08:07:16;;;;;;;1999.90;999.90;;;21.30;99.90;;;;;;5014084;28;20194;-70
2023/07/07 08:09:41;;;;;;;1999.90;999.90;;;21.30;99.90;;;;;;5014118;28;20409;-70
2023/07/07 08:12:09;;;;;;;1999.90;999.90;;;21.40;99.90;;;;;;5013938;28;20188;-69
2023/07/07 08:14:34;;;;;;;1999.90;999.90;;;21.50;99.90;;;;;;5014287;28;20178;-69
2023/07/07 08:17:08;;;;;;;1999.90;999.90;;;21.60;99.90;;;;;;5014250;28;20457;-70
2023/07/07 08:19:36;;;;;;;1999.90;999.90;;;21.70;99.90;;;;;;5013885;28;20195;-70
2023/07/07 08:22:05;;;;;;;1999.90;999.90;;;21.90;99.90;;;;;;5013705;28;20408;-69
2023/07/07 08:24:38;;;;;;;1999.90;999.90;;;22.00;99.90;;;;;;5014355;28;20411;-70
2023/07/07 08:27:04;;;;;;;1999.90;999.90;;;22.20;99.90;;;;;;5014294;28;20424;-70
2023/07/07 08:29:29;;;;;;;1999.90;999.90;;;22.30;99.90;;;;;;5014204;28;20509;-70
2023/07/07 08:31:55;;;;;;;1999.90;999.90;;;22.40;99.90;;;;;;5013706;28;20450;-70
2023/07/07 08:34:20;;;;;;;1999.90;999.90;;;22.50;99.90;;;;;;5014190;28;20697;-70
2023/07/07 08:36:47;;;;;;;1999.90;999.90;;;22.60;99.90;;;;;;5013577;28;20305;-71
2023/07/07 08:39:15;;;;;;;1999.90;999.90;;;22.80;99.90;;;;;;5013027;28;20207;-70
2023/07/07 08:41:55;;;;;;;1999.90;999.90;;;22.80;99.90;;;;;;5013915;28;20538;-70
2023/07/07 08:44:23;;;;;;;1999.90;999.90;;;22.90;99.90;;;;;;5014073;28;20415;-70
2023/07/07 08:46:54;;;;;;;1999.90;999.90;;;23.10;99.90;;;;;;5013597;28;20858;-70
2023/07/07 08:49:29;;;;;;;1999.90;999.90;;;23.20;99.90;;;;;;5014232;28;20414;-70
2023/07/07 08:52:03;;;;;;;1999.90;999.90;;;23.30;99.90;;;;;;5013814;28;20431;-70
2023/07/07 08:54:48;;;;;;;1999.90;999.90;;;23.50;99.90;;;;;;5013670;28;20408;-70
2023/07/07 08:57:15;;;;;;;1999.90;999.90;;;23.60;98.40;;;;;;5013977;28;20447;-70
2023/07/07 09:00:09;;;;;;;1999.90;999.90;;;23.80;97.20;;;;;;5013614;28;20433;-70
2023/07/07 09:02:50;;;;;;;1999.90;999.90;;;23.90;96.00;;;;;;5012900;28;20378;-69
2023/07/07 09:05:20;;;;;;;1999.90;999.90;;;24.00;96.10;;;;;;5012641;28;20391;-69
2023/07/07 09:07:54;;;;;;;1999.90;999.90;;;24.20;93.70;;;;;;5012383;28;20398;-70
2023/07/07 09:10:32;;;;;;;1999.90;999.90;;;24.30;93.00;;;;;;5012618;28;20905;-70
2023/07/07 09:13:30;;;;;;;1999.90;999.90;;;24.50;91.30;;;;;;5012288;28;20385;-70
2023/07/07 09:16:27;;;;;;;1999.90;999.90;;;24.60;90.90;;;;;;5007749;28;20513;-69
2023/07/07 09:19:03;;;;;;;1999.90;999.90;;;24.80;88.50;;;;;;5010063;28;20441;-69
2023/07/07 09:21:43;;;;;;;1999.90;999.90;;;24.90;82.90;;;;;;5012238;28;20386;-70
2023/07/07 09:24:42;;;;;;;1999.90;999.90;;;25.10;81.50;;;;;;5010767;28;20967;-69
2023/07/07 09:27:15;;;;;;;1999.90;999.90;;;25.10;64.30;;;;;;5005084;28;20479;-69
2023/07/07 09:29:41;;;;;;;1999.90;999.90;;;25.20;62.90;;;;;;5008186;28;20398;-69
2023/07/07 09:32:11;;;;;;;1999.90;999.90;;;25.30;58.30;;;;;;5009318;28;20418;-69
2023/07/07 09:34:36;;;;;;;1999.90;999.90;;;25.50;58.40;;;;;;5012104;28;20394;-69
2023/07/07 09:37:12;;;;;;;1999.90;999.90;;;25.70;55.90;;;;;;5012103;28;20436;-68
2023/07/07 09:39:55;;;;;;;1999.90;999.90;;;25.80;43.90;;;;;;5012756;28;20191;-70
2023/07/07 09:42:38;;;;;;;1999.90;999.90;;;25.90;41.00;;;;;;5008647;28;20802;-70
2023/07/07 09:45:10;;;;;;;1999.90;999.90;;;26.10;30.80;;;;;;5008915;28;20394;-70
2023/07/07 09:48:13;;;;;;;1999.90;999.90;;;26.20;29.10;;;;;;5010883;28;20401;-69
2023/07/07 09:51:17;;;;;;;1999.90;999.90;;;26.30;29.60;;;;;;5015781;28;20396;-68
2023/07/07 09:53:46;;;;;;;1999.90;999.90;;;26.40;31.50;;;;;;4984952;28;20830;-68
2023/07/07 09:56:15;;;;;;;1999.90;999.90;;;26.50;29.30;;;;;;5013410;28;20452;-69
2023/07/07 09:58:50;;;;;;;1999.90;999.90;;;26.70;29.00;;;;;;5016255;28;20455;-68
2023/07/07 10:01:16;;;;;;;1999.90;999.90;;;26.90;25.70;;;;;;5014163;28;20392;-67
2023/07/07 10:03:47;;;;;;;1999.90;999.90;;;27.00;22.50;;;;;;5014096;28;20387;-68
2023/07/07 10:06:36;;;;;;;1999.90;999.90;;;27.10;22.60;;;;;;5014895;28;20410;-68
2023/07/07 10:09:03;;;;;;;1999.90;999.90;;;27.30;21.40;;;;;;5014804;28;20415;-70
2023/07/07 10:11:28;;;;;;;1999.90;999.90;;;27.40;20.40;;;;;;5014711;28;20383;-69
2023/07/07 10:13:56;;;;;;;1999.90;999.90;;;27.40;16.60;;;;;;5014871;28;20404;-69
2023/07/07 10:16:32;;;;;;;1999.90;999.90;;;27.50;17.40;;;;;;5013348;28;20212;-70
2023/07/07 10:19:00;;;;;;;1999.90;999.90;;;27.50;14.40;;;;;;5010836;28;21019;-69
2023/07/07 10:21:27;;;;;;;1999.90;999.90;;;27.50;12.60;;;;;;5015827;28;20845;-71
2023/07/07 10:23:52;;;;;;;1999.90;999.90;;;27.70;15.20;;;;;;5003462;28;20391;-70
2023/07/07 10:26:19;;;;;;;1999.90;999.90;;;27.80;15.10;;;;;;5015241;28;20466;-70
2023/07/07 10:28:46;;;;;;;1999.90;999.90;;;27.90;14.20;;;;;;5015341;28;20260;-69
2023/07/07 10:31:12;;;;;;;1999.90;999.90;;;27.80;10.80;;;;;;5014776;28;20418;-70
2023/07/07 10:33:39;;;;;;;1999.90;999.90;;;27.90;12.80;;;;;;5015405;28;20408;-70
2023/07/07 10:36:21;;;;;;;1999.90;999.90;;;28.00;13.20;;;;;;5015088;28;20193;-72
2023/07/07 10:38:47;;;;;;;1999.90;999.90;;;28.00;12.90;;;;;;5015150;28;20512;-70
2023/07/07 10:41:13;;;;;;;1999.90;999.90;;;28.20;12.40;;;;;;5014874;28;20412;-69
2023/07/07 10:43:38;;;;;;;1999.90;999.90;;;28.30;11.10;;;;;;5014803;28;20197;-70
2023/07/07 10:46:10;;;;;;;1999.90;999.90;;;28.40;12.50;;;;;;5015016;28;20197;-70
2023/07/07 10:48:39;;;;;;;1999.90;999.90;;;28.60;10.00;;;;;;5015520;28;20161;-70
2023/07/07 10:51:32;;;;;;;1999.90;999.90;;;28.70;9.30;;;;;;5014444;28;20411;-70
2023/07/07 10:54:21;;;;;;;1999.90;999.90;;;29.00;9.50;;;;;;5013300;28;20428;-69
2023/07/07 10:56:52;;;;;;;1999.90;999.90;;;29.00;8.20;;;;;;5010413;28;20442;-69
2023/07/07 10:59:39;;;;;;;1999.90;999.90;;;29.10;7.80;;;;;;5014102;28;20483;-70
2023/07/07 11:02:42;;;;;;;1999.90;999.90;;;29.00;7.00;;;;;;5013124;28;20400;-70
2023/07/07 11:05:25;;;;;;;1999.90;999.90;;;29.10;7.20;;;;;;5014010;28;20875;-70
2023/07/07 11:08:20;;;;;;;1999.90;999.90;;;29.30;7.60;;;;;;5014040;28;20443;-71
2023/07/07 11:11:10;;;;;;;1999.90;999.90;;;29.50;7.70;;;;;;5014025;28;20407;-70
2023/07/07 11:14:03;;;;;;;1999.90;999.90;;;29.70;6.80;;;;;;5013756;28;20392;-70
2023/07/07 11:16:35;;;;;;;1999.90;999.90;;;29.80;5.60;;;;;;5013939;28;20947;-70
2023/07/07 11:19:33;;;;;;;1999.90;999.90;;;30.00;6.70;;;;;;5013845;28;20451;-70
2023/07/07 11:22:20;;;;;;;1999.90;999.90;;;30.20;4.90;;;;;;5013656;28;20392;-70
2023/07/07 11:25:24;;;;;;;1999.90;999.90;;;30.30;2.40;;;;;;5013749;28;20435;-70
2023/07/07 11:28:03;;;;;;;1999.90;999.90;;;30.40;3.90;;;;;;4991155;28;20843;-70
2023/07/07 11:30:51;;;;;;;1999.90;999.90;;;30.50;4.20;;;;;;5013998;28;20393;-70
2023/07/07 11:33:35;;;;;;;1999.90;999.90;;;30.70;5.20;;;;;;5013521;28;20400;-70
2023/07/07 11:36:38;;;;;;;1999.90;999.90;;;30.50;1.00;;;;;;5013856;28;20445;-70
2023/07/07 11:39:19;;;;;;;1999.90;999.90;;;30.50;1.00;;;;;;5013638;28;20456;-70
2023/07/07 11:42:19;;;;;;;1999.90;999.90;;;30.60;1.40;;;;;;5013292;28;20824;-70
2023/07/07 11:45:10;;;;;;;1999.90;999.90;;;30.70;1.80;;;;;;5012916;28;20779;-70
2023/07/07 11:48:06;;;;;;;1999.90;999.90;;;30.80;1.00;;;;;;5013358;28;20435;-70
2023/07/07 11:51:22;;;;;;;1999.90;999.90;;;30.90;1.00;;;;;;4993580;28;20397;-70
2023/07/07 11:54:08;;;;;;;1999.90;999.90;;;31.10;1.80;;;;;;4989202;28;20408;-70
2023/07/07 11:56:46;;;;;;;1999.90;999.90;;;31.20;1.00;;;;;;4993779;28;20424;-70
2023/07/07 11:59:51;;;;;;;1999.90;999.90;;;31.20;1.00;;;;;;4993376;28;20861;-70
2023/07/07 12:02:24;;;;;;;1999.90;999.90;;;31.40;1.00;;;;;;4985470;28;20417;-70
2023/07/07 12:04:52;;;;;;;1999.90;999.90;;;31.60;1.00;;;;;;4993272;28;20902;-70
2023/07/07 12:07:32;;;;;;;1999.90;999.90;;;31.80;1.00;;;;;;4993110;28;20421;-70
2023/07/07 12:10:25;;;;;;;1999.90;999.90;;;31.80;1.00;;;;;;4993558;28;20385;-70
2023/07/07 12:13:26;;;;;;;1999.90;999.90;;;31.90;1.00;;;;;;4990468;28;20413;-70
2023/07/07 12:15:59;;;;;;;1999.90;999.90;;;32.60;1.00;;;;;;4993416;28;21031;-70
2023/07/07 12:18:32;;;;;;;1999.90;999.90;;;33.60;1.00;;;;;;4993253;28;20440;-70
2023/07/07 12:21:20;;;;;;;1999.90;999.90;;;34.50;1.00;;;;;;4992746;28;20401;-70